createdAt,value
2018-03-28T00:01:14.104Z,25.70
2018-03-28T00:03:42.542Z,22.20
2018-03-28T00:06:10.742Z,22.50
2018-03-28T00:08:39.189Z,23.07
2018-03-28T00:11:07.390Z,23.80
2018-03-28T00:13:35.506Z,27.37
2018-03-28T00:16:05.074Z,22.47
2018-03-28T00:18:33.516Z,23.70
2018-03-28T00:21:01.943Z,21.50
2018-03-28T00:23:30.383Z,23.87
2018-03-28T00:25:58.798Z,21.23
2018-03-28T00:28:27.234Z,23.97
2018-03-28T00:30:55.675Z,22.93
2018-03-28T00:33:24.867Z,21.87
2018-03-28T00:35:54.078Z,23.37
2018-03-28T00:38:23.260Z,19.80
2018-03-28T00:40:52.460Z,20.53
2018-03-28T00:43:21.667Z,21.73
2018-03-28T00:45:50.859Z,19.97
2018-03-28T00:48:20.053Z,19.33
2018-03-28T00:50:49.242Z,20.33
2018-03-28T00:53:18.466Z,17.83
2018-03-28T00:55:46.892Z,18.50
2018-03-28T00:58:15.311Z,18.53
2018-03-28T01:00:44.724Z,17.70
2018-03-28T01:03:13.158Z,18.43
2018-03-28T01:05:41.588Z,17.37
2018-03-28T01:08:10.223Z,16.57
2018-03-28T01:10:38.669Z,17.27
2018-03-28T01:13:07.099Z,17.93
2018-03-28T01:15:36.294Z,16.73
2018-03-28T01:18:05.501Z,16.77
2018-03-28T01:20:34.702Z,17.13
2018-03-28T01:23:03.121Z,18.67
2018-03-28T01:25:32.312Z,19.27
2018-03-28T01:28:00.748Z,16.87
2018-03-28T01:30:29.946Z,17.40
2018-03-28T01:32:59.130Z,16.90
2018-03-28T01:35:28.331Z,14.80
2018-03-28T01:37:57.644Z,14.57
2018-03-28T01:40:26.090Z,15.83
2018-03-28T01:42:54.804Z,13.53
2018-03-28T01:45:23.309Z,12.07
2018-03-28T01:47:51.730Z,12.73
2018-03-28T01:50:20.174Z,12.43
2018-03-28T01:52:48.602Z,10.87
2018-03-28T01:55:17.796Z,12.20
2018-03-28T01:57:47.002Z,10.37
2018-03-28T02:00:16.242Z,9.67
2018-03-28T02:02:44.675Z,9.57
2018-03-28T02:05:13.858Z,9.03
2018-03-28T02:07:42.323Z,9.10
2018-03-28T02:10:10.735Z,9.10
2018-03-28T02:12:39.930Z,9.03
2018-03-28T02:15:09.121Z,9.47
2018-03-28T02:17:38.381Z,8.77
2018-03-28T02:20:07.471Z,9.37
2018-03-28T02:22:35.907Z,8.17
2018-03-28T02:25:04.313Z,8.00
2018-03-28T02:27:32.748Z,8.80
2018-03-28T02:30:01.946Z,8.83
2018-03-28T02:32:31.137Z,8.20
2018-03-28T02:35:00.335Z,7.97
2018-03-28T02:37:29.551Z,8.17
2018-03-28T02:39:57.756Z,7.90
2018-03-28T02:42:26.171Z,10.40
2018-03-28T02:44:55.431Z,9.33
2018-03-28T02:47:24.140Z,8.70
2018-03-28T02:49:53.370Z,9.33
2018-03-28T02:52:21.813Z,7.80
2018-03-28T02:54:51.009Z,8.57
2018-03-28T02:57:20.205Z,8.47
2018-03-28T02:59:49.414Z,8.33
2018-03-28T03:02:17.848Z,8.07
2018-03-28T03:04:46.275Z,8.93
2018-03-28T03:07:14.755Z,7.97
2018-03-28T03:09:43.310Z,8.73
2018-03-28T03:12:12.517Z,7.43
2018-03-28T03:14:41.700Z,9.27
2018-03-28T03:17:10.137Z,9.77
2018-03-28T03:19:38.555Z,8.90
2018-03-28T03:22:06.978Z,8.30
2018-03-28T03:24:35.405Z,7.10
2018-03-28T03:27:03.833Z,8.87
2018-03-28T03:29:32.252Z,9.00
2018-03-28T03:32:00.674Z,8.27
2018-03-28T03:34:29.101Z,8.20
2018-03-28T03:36:57.312Z,9.37
2018-03-28T03:39:26.814Z,9.47
2018-03-28T03:41:56.678Z,9.00
2018-03-28T03:44:25.860Z,7.50
2018-03-28T03:46:55.944Z,6.60
2018-03-28T03:49:25.982Z,8.37
2018-03-28T03:51:54.401Z,7.77
2018-03-28T03:54:22.834Z,8.13
2018-03-28T03:56:51.238Z,7.23
2018-03-28T03:59:19.670Z,8.63
2018-03-28T04:01:48.850Z,8.17
2018-03-28T04:04:17.287Z,6.77
2018-03-28T04:06:45.710Z,6.67
2018-03-28T04:09:14.135Z,7.43
2018-03-28T04:11:42.564Z,6.73
2018-03-28T04:14:11.166Z,7.53
2018-03-28T04:16:40.362Z,8.20
2018-03-28T04:19:09.546Z,5.90
2018-03-28T04:21:38.742Z,8.00
2018-03-28T04:24:07.175Z,9.20
2018-03-28T04:26:35.592Z,9.43
2018-03-28T04:29:04.803Z,10.47
2018-03-28T04:31:33.987Z,8.97
2018-03-28T04:34:02.417Z,9.90
2018-03-28T04:36:30.837Z,10.27
2018-03-28T04:38:59.278Z,8.73
2018-03-28T04:41:27.699Z,8.47
2018-03-28T04:43:56.338Z,8.50
2018-03-28T04:46:25.424Z,7.17
2018-03-28T04:48:54.317Z,6.27
2018-03-28T04:51:22.738Z,6.93
2018-03-28T04:53:51.160Z,7.97
2018-03-28T04:56:19.582Z,7.77
2018-03-28T04:58:48.003Z,6.07
2018-03-28T05:01:17.197Z,7.37
2018-03-28T05:03:46.377Z,7.70
2018-03-28T05:06:15.576Z,7.83
2018-03-28T05:08:44.895Z,7.83
2018-03-28T05:11:13.313Z,7.77
2018-03-28T05:13:41.723Z,7.17
2018-03-28T05:16:10.158Z,6.73
2018-03-28T05:18:38.611Z,7.67
2018-03-28T05:21:07.020Z,8.10
2018-03-28T05:23:35.468Z,9.93
2018-03-28T05:26:03.883Z,7.77
2018-03-28T05:28:32.370Z,10.40
2018-03-28T05:31:00.814Z,8.40
2018-03-28T05:33:29.040Z,8.93
2018-03-28T05:35:57.484Z,9.00
2018-03-28T05:38:26.472Z,9.37
2018-03-28T05:40:55.788Z,10.70
2018-03-28T05:43:24.998Z,12.83
2018-03-28T05:45:53.466Z,12.33
2018-03-28T05:48:21.892Z,10.20
2018-03-28T05:50:50.756Z,10.87
2018-03-28T05:53:19.182Z,10.27
2018-03-28T05:55:47.704Z,11.30
2018-03-28T05:58:17.020Z,10.37
2018-03-28T06:00:45.444Z,9.63
2018-03-28T06:03:13.885Z,9.67
2018-03-28T06:05:43.067Z,9.33
2018-03-28T06:08:11.483Z,7.90
2018-03-28T06:10:39.911Z,9.77
2018-03-28T06:13:08.328Z,9.77
2018-03-28T06:15:37.341Z,8.10
2018-03-28T06:18:05.772Z,8.13
2018-03-28T06:20:34.201Z,9.90
2018-03-28T06:23:02.686Z,9.23
2018-03-28T06:25:31.114Z,8.47
2018-03-28T06:27:59.535Z,8.43
2018-03-28T06:30:27.969Z,8.70
2018-03-28T06:32:56.379Z,9.90
2018-03-28T06:35:25.070Z,9.07
2018-03-28T06:37:53.533Z,7.97
2018-03-28T06:40:22.721Z,7.97
2018-03-28T06:42:51.925Z,7.53
2018-03-28T06:45:21.106Z,9.70
2018-03-28T06:47:50.300Z,8.57
2018-03-28T06:50:19.511Z,8.27
2018-03-28T06:52:48.376Z,7.50
2018-03-28T06:55:16.812Z,8.50
2018-03-28T06:57:45.235Z,9.23
2018-03-28T08:16:11.699Z,12.40
2018-03-28T08:18:40.109Z,9.50
2018-03-28T08:21:08.524Z,8.17
2018-03-28T08:23:36.962Z,8.30
2018-03-28T08:26:05.054Z,8.53
2018-03-28T08:28:34.257Z,10.30
2018-03-28T08:31:03.469Z,9.70
2018-03-28T08:33:31.904Z,10.67
2018-03-28T08:36:00.355Z,8.50
2018-03-28T08:38:47.266Z,8.40
2018-03-28T08:41:15.705Z,9.47
2018-03-28T08:43:44.121Z,7.03
2018-03-28T08:46:12.528Z,9.20
2018-03-28T08:48:40.959Z,7.53
2018-03-28T08:51:10.139Z,9.03
2018-03-28T08:53:38.582Z,8.67
2018-03-28T08:56:07.006Z,12.43
2018-03-28T08:58:36.194Z,8.97
2018-03-28T09:01:04.618Z,11.77
2018-03-28T09:03:33.039Z,7.70
2018-03-28T09:06:01.461Z,10.10
2018-03-28T09:08:29.893Z,10.77
2018-03-28T09:10:58.326Z,8.63
2018-03-28T09:13:26.735Z,6.70
2018-03-28T09:15:55.150Z,7.40
2018-03-28T09:18:24.348Z,7.43
2018-03-28T09:20:53.522Z,15.53
2018-03-28T09:23:22.702Z,9.83
2018-03-28T09:25:52.152Z,8.37
2018-03-28T09:28:21.840Z,9.03
2018-03-28T09:30:50.752Z,7.93
2018-03-28T09:33:19.931Z,7.23
2018-03-28T09:35:48.357Z,9.77
2018-03-28T09:38:16.781Z,7.00
2018-03-28T09:40:45.218Z,9.63
2018-03-28T09:43:13.645Z,7.07
2018-03-28T09:45:42.856Z,9.10
2018-03-28T09:48:12.048Z,7.63
2018-03-28T09:50:41.234Z,7.73
2018-03-28T09:53:10.557Z,7.50
2018-03-28T09:55:39.761Z,7.67
2018-03-28T09:58:08.183Z,8.03
2018-03-28T10:00:36.386Z,6.37
2018-03-28T10:03:11.000Z,7.47
2018-03-28T10:05:39.201Z,15.17
2018-03-28T10:08:08.412Z,10.83
2018-03-28T10:10:36.836Z,9.83
2018-03-28T10:13:06.224Z,7.73
2018-03-28T10:15:34.656Z,7.97
2018-03-28T10:18:03.864Z,7.57
2018-03-28T10:20:33.803Z,7.83
2018-03-28T10:23:03.558Z,7.77
2018-03-28T10:25:33.707Z,7.00
2018-03-28T10:28:02.526Z,9.23
2018-03-28T10:30:31.003Z,7.07
2018-03-28T10:32:59.417Z,5.87
2018-03-28T10:35:27.867Z,5.13
2018-03-28T10:37:56.292Z,6.07
2018-03-28T10:40:25.549Z,4.50
2018-03-28T10:42:54.088Z,5.60
2018-03-28T10:45:24.168Z,6.73
2018-03-28T10:47:53.190Z,6.67
2018-03-28T10:50:22.376Z,6.63
2018-03-28T10:52:52.117Z,7.07
2018-03-28T10:55:20.546Z,6.70
2018-03-28T10:57:48.985Z,5.87
2018-03-28T11:00:18.179Z,4.47
2018-03-28T11:02:46.631Z,5.77
2018-03-28T11:05:15.049Z,5.13
2018-03-28T11:07:43.542Z,4.40
2018-03-28T11:10:12.091Z,4.73
2018-03-28T11:12:40.507Z,4.73
2018-03-28T11:15:08.934Z,4.13
2018-03-28T11:17:37.387Z,3.53
2018-03-28T11:20:06.573Z,4.40
2018-03-28T11:22:34.997Z,3.47
2018-03-28T11:25:03.426Z,4.43
2018-03-28T11:27:31.848Z,3.47
2018-03-28T11:30:00.276Z,3.23
2018-03-28T11:32:28.715Z,2.23
2018-03-28T11:34:57.139Z,3.60
2018-03-28T11:37:25.566Z,2.57
2018-03-28T11:39:54.767Z,4.17
2018-03-28T11:42:23.878Z,2.87
2018-03-28T11:44:52.840Z,2.27
2018-03-28T11:47:21.592Z,2.77
2018-03-28T11:49:50.802Z,2.33
2018-03-28T11:52:19.979Z,2.93
2018-03-28T11:54:48.418Z,3.80
2018-03-28T11:57:16.847Z,3.30
2018-03-28T11:59:46.056Z,5.33
2018-03-28T12:02:19.386Z,5.63
2018-03-28T12:04:47.828Z,2.30
2018-03-28T12:07:17.018Z,2.57
2018-03-28T12:09:46.197Z,2.70
2018-03-28T12:12:14.658Z,2.93
2018-03-28T12:14:43.073Z,4.53
2018-03-28T12:17:12.264Z,2.90
2018-03-28T12:19:41.464Z,3.03
2018-03-28T12:22:10.647Z,1.93
2018-03-28T12:24:39.059Z,2.53
2018-03-28T12:27:07.496Z,2.50
2018-03-28T12:29:35.924Z,2.00
2018-03-28T12:32:04.365Z,3.97
2018-03-28T12:34:32.784Z,4.00
2018-03-28T12:37:01.207Z,3.23
2018-03-28T12:39:29.646Z,5.50
2018-03-28T12:41:58.075Z,2.83
2018-03-28T12:44:26.526Z,1.70
2018-03-28T12:46:54.942Z,2.73
2018-03-28T12:49:24.125Z,2.87
2018-03-28T12:51:52.549Z,3.37
2018-03-28T12:54:20.978Z,2.47
2018-03-28T12:56:49.425Z,2.13
2018-03-28T12:59:17.848Z,4.13
2018-03-28T13:01:47.030Z,1.50
2018-03-28T13:04:15.483Z,1.80
2018-03-28T13:06:43.899Z,1.63
2018-03-28T13:09:12.326Z,4.43
2018-03-28T13:11:40.768Z,3.10
2018-03-28T13:14:09.962Z,7.73
2018-03-28T13:16:39.152Z,3.37
2018-03-28T13:19:08.368Z,3.37
2018-03-28T13:21:36.793Z,2.77
2018-03-28T13:24:04.882Z,4.60
2018-03-28T13:26:32.982Z,2.33
2018-03-28T13:29:02.879Z,4.43
2018-03-28T13:31:32.781Z,2.50
2018-03-28T13:34:01.352Z,2.60
2018-03-28T13:36:29.765Z,4.10
2018-03-28T13:38:58.968Z,2.93
2018-03-28T13:41:28.155Z,3.77
2018-03-28T13:43:57.366Z,4.87
2018-03-28T13:46:25.820Z,5.67
2018-03-28T13:48:54.408Z,4.43
2018-03-28T13:51:24.046Z,4.43
2018-03-28T13:53:52.507Z,5.97
2018-03-28T13:56:21.699Z,4.90
2018-03-28T13:58:50.891Z,4.30
2018-03-28T14:01:20.084Z,5.50
2018-03-28T14:03:49.274Z,4.40
2018-03-28T14:06:17.706Z,5.83
2018-03-28T14:08:46.144Z,5.90
2018-03-28T14:11:15.339Z,3.03
2018-03-28T14:13:44.549Z,8.90
2018-03-28T14:16:12.973Z,2.87
2018-03-28T14:18:41.395Z,4.47
2018-03-28T14:21:10.590Z,2.73
2018-03-28T14:23:39.791Z,3.57
2018-03-28T14:26:08.980Z,4.00
2018-03-28T14:28:38.162Z,2.77
2018-03-28T14:31:06.603Z,5.27
2018-03-28T14:33:35.023Z,4.10
2018-03-28T14:36:03.451Z,2.83
2018-03-28T14:38:31.878Z,2.97
2018-03-28T14:41:00.307Z,3.03
2018-03-28T14:43:28.713Z,4.13
2018-03-28T14:45:57.137Z,3.13
2018-03-28T14:48:26.555Z,3.97
2018-03-28T14:50:55.490Z,3.23
2018-03-28T14:53:24.898Z,3.53
2018-03-28T14:55:53.438Z,4.70
2018-03-28T14:58:21.867Z,4.30
2018-03-28T15:00:50.299Z,5.43
2018-03-28T15:03:18.719Z,5.63
2018-03-28T15:05:47.152Z,4.43
2018-03-28T15:08:15.584Z,4.00
2018-03-28T15:10:44.021Z,4.37
2018-03-28T15:13:12.469Z,5.93
2018-03-28T15:15:41.072Z,5.90
2018-03-28T15:18:09.500Z,7.40
2018-03-28T15:20:37.938Z,6.10
2018-03-28T15:23:06.375Z,6.83
2018-03-28T15:25:35.559Z,4.83
2018-03-28T15:28:03.995Z,4.93
2018-03-28T15:30:32.087Z,5.33
2018-03-28T15:33:00.518Z,4.67
2018-03-28T15:35:28.950Z,6.57
2018-03-28T15:37:57.390Z,5.17
2018-03-28T15:40:25.815Z,5.43
2018-03-28T15:42:54.225Z,7.03
2018-03-28T15:45:23.414Z,6.60
2018-03-28T15:47:52.636Z,4.03
2018-03-28T15:50:21.054Z,3.10
2018-03-28T15:52:49.474Z,2.50
2018-03-28T15:55:18.675Z,2.80
2018-03-28T15:57:47.109Z,2.17
2018-03-28T16:00:15.534Z,2.97
2018-03-28T16:02:43.967Z,2.40
2018-03-28T16:05:12.381Z,3.23
2018-03-28T16:07:41.589Z,4.33
2018-03-28T16:10:10.006Z,2.33
2018-03-28T16:12:38.427Z,2.80
2018-03-28T16:15:07.652Z,2.27
2018-03-28T16:17:36.222Z,2.20
2018-03-28T16:20:03.990Z,2.70
2018-03-28T16:22:32.406Z,1.90
2018-03-28T16:25:00.847Z,2.10
2018-03-28T16:27:29.259Z,2.97
2018-03-28T16:29:57.706Z,3.23
2018-03-28T16:32:26.112Z,2.40
2018-03-28T16:34:54.516Z,2.57
2018-03-28T16:37:22.949Z,3.30
2018-03-28T16:39:51.372Z,4.13
2018-03-28T16:42:19.781Z,4.97
2018-03-28T16:44:48.975Z,4.33
2018-03-28T16:47:18.196Z,3.80
2018-03-28T16:49:46.619Z,5.07
2018-03-28T16:52:15.040Z,3.83
2018-03-28T16:54:43.486Z,7.00
2018-03-28T16:57:11.918Z,4.70
2018-03-28T16:59:40.563Z,8.20
2018-03-28T17:02:09.154Z,8.77
2018-03-28T17:04:38.358Z,10.70
2018-03-28T17:07:07.545Z,7.73
2018-03-28T17:09:36.738Z,6.23
2018-03-28T17:12:05.039Z,3.70
2018-03-28T17:14:33.463Z,3.33
2018-03-28T17:17:01.868Z,4.00
2018-03-28T17:19:31.083Z,4.43
2018-03-28T17:21:59.685Z,5.23
2018-03-28T17:24:28.123Z,3.70
2018-03-28T17:26:57.316Z,4.10
2018-03-28T17:29:26.508Z,4.90
2018-03-28T17:31:55.601Z,6.67
2018-03-28T17:34:24.644Z,4.43
2018-03-28T17:36:53.226Z,5.10
2018-03-28T17:39:21.676Z,4.90
2018-03-28T17:41:50.866Z,5.27
2018-03-28T17:44:20.051Z,4.53
2018-03-28T17:46:48.479Z,3.70
2018-03-28T17:49:16.890Z,3.67
2018-03-28T17:51:45.322Z,4.13
2018-03-28T17:54:13.749Z,3.10
2018-03-28T17:56:42.200Z,4.07
2018-03-28T17:59:10.632Z,3.87
2018-03-28T18:01:39.820Z,4.67
2018-03-28T18:04:09.019Z,2.93
2018-03-28T18:06:38.203Z,3.43
2018-03-28T18:09:05.986Z,2.70
2018-03-28T18:11:35.178Z,2.30
2018-03-28T18:14:04.371Z,2.30
2018-03-28T18:16:33.568Z,3.30
2018-03-28T18:19:02.751Z,3.33
2018-03-28T18:21:31.541Z,2.93
2018-03-28T18:23:59.961Z,2.90
2018-03-28T18:26:28.399Z,2.60
2018-03-28T18:28:56.813Z,2.47
2018-03-28T18:31:25.645Z,2.50
2018-03-28T18:33:54.547Z,3.03
2018-03-28T18:36:23.261Z,2.70
2018-03-28T18:38:52.444Z,3.13
2018-03-28T18:41:22.372Z,3.33
2018-03-28T18:43:50.824Z,3.13
2018-03-28T18:46:19.256Z,2.97
2018-03-28T18:48:47.683Z,2.37
2018-03-28T18:51:16.124Z,2.30
2018-03-28T18:53:44.319Z,2.10
2018-03-28T18:56:12.753Z,3.20
2018-03-28T18:58:41.178Z,3.17
2018-03-28T19:01:09.638Z,1.93
2018-03-28T19:03:38.058Z,4.67
2018-03-28T19:06:07.244Z,5.37
2018-03-28T19:08:35.683Z,15.23
2018-03-28T19:11:04.097Z,7.17
2018-03-28T19:13:32.561Z,7.80
2018-03-28T19:16:01.134Z,19.37
2018-03-28T19:18:29.571Z,12.23
2018-03-28T19:20:58.004Z,35.60
2018-03-28T19:23:26.427Z,34.87
2018-03-28T19:25:54.858Z,15.83
2018-03-28T19:28:23.336Z,12.30
2018-03-28T19:30:51.746Z,23.00
2018-03-28T19:33:20.955Z,12.73
2018-03-28T19:35:49.386Z,14.77
2018-03-28T19:38:17.835Z,10.87
2018-03-28T19:40:46.258Z,17.67
2018-03-28T19:43:14.689Z,7.97
2018-03-28T19:45:43.131Z,11.23
2018-03-28T19:48:12.324Z,7.10
2018-03-28T19:50:41.527Z,7.37
2018-03-28T19:53:10.719Z,10.07
2018-03-28T19:55:39.935Z,9.20
2018-03-28T19:58:08.363Z,22.07
2018-03-28T20:00:36.774Z,7.70
2018-03-28T20:03:05.633Z,8.97
2018-03-28T20:05:34.051Z,7.67
2018-03-28T20:08:03.242Z,6.70
2018-03-28T20:10:32.430Z,7.87
2018-03-28T20:13:01.619Z,5.87
2018-03-28T20:15:30.041Z,4.83
2018-03-28T20:17:58.453Z,2.43
2018-03-28T20:20:26.892Z,1.90
2018-03-28T20:22:55.595Z,2.57
2018-03-28T20:25:24.026Z,1.70
2018-03-28T20:27:53.299Z,1.67
2018-03-28T20:30:21.754Z,1.60
2018-03-28T20:32:50.192Z,2.33
2018-03-28T20:35:19.394Z,1.80
2018-03-28T20:37:47.811Z,2.30
2018-03-28T20:40:16.234Z,4.20
2018-03-28T20:42:45.451Z,3.80
2018-03-28T20:45:14.818Z,3.20
2018-03-28T20:47:43.248Z,3.80
2018-03-28T20:50:11.665Z,5.70
2018-03-28T20:52:40.104Z,3.90
2018-03-28T20:55:08.540Z,3.83
2018-03-28T20:57:37.095Z,3.23
2018-03-28T21:00:05.175Z,4.40
2018-03-28T21:02:33.594Z,2.70
2018-03-28T21:05:02.028Z,3.03
2018-03-28T21:07:30.454Z,2.90
2018-03-28T21:09:58.893Z,1.73
2018-03-28T21:12:27.309Z,2.23
2018-03-28T21:14:56.362Z,3.10
2018-03-28T21:17:25.384Z,2.80
2018-03-28T21:19:54.869Z,1.60
2018-03-28T21:22:24.067Z,2.10
2018-03-28T21:24:53.324Z,2.13
2018-03-28T21:27:21.756Z,1.87
2018-03-28T21:29:50.957Z,4.63
2018-03-28T21:32:19.402Z,2.67
2018-03-28T21:34:47.818Z,3.47
2018-03-28T21:37:16.234Z,2.87
2018-03-28T21:39:45.436Z,2.50
2018-03-28T21:42:13.876Z,4.57
2018-03-28T21:44:42.298Z,4.70
2018-03-28T21:47:10.736Z,5.10
2018-03-28T21:49:39.160Z,3.33
2018-03-28T21:52:07.601Z,4.43
2018-03-28T21:54:36.010Z,4.53
2018-03-28T21:57:04.443Z,5.83
2018-03-28T21:59:32.869Z,5.13
2018-03-28T22:02:01.312Z,3.97
2018-03-28T22:04:29.730Z,4.03
2018-03-28T22:06:58.155Z,3.97
2018-03-28T22:09:26.582Z,4.53
2018-03-28T22:11:55.024Z,3.07
2018-03-28T22:14:23.819Z,2.80
2018-03-28T22:16:52.240Z,3.27
2018-03-28T22:19:20.680Z,2.80
2018-03-28T22:21:49.115Z,4.67
2018-03-28T22:24:18.072Z,2.97
2018-03-28T22:26:46.272Z,4.60
2018-03-28T22:29:15.459Z,2.50
2018-03-28T22:31:43.886Z,3.73
2018-03-28T22:34:12.298Z,5.13
2018-03-28T22:36:40.733Z,4.47
2018-03-28T22:39:09.158Z,5.17
2018-03-28T22:41:37.597Z,3.90
2018-03-28T22:44:06.020Z,3.70
2018-03-28T22:46:34.435Z,4.83
2018-03-28T22:49:02.881Z,3.90
2018-03-28T22:51:31.482Z,3.70
2018-03-28T22:54:00.683Z,5.53
2018-03-28T22:56:29.906Z,3.93
2018-03-28T22:58:59.280Z,5.90
2018-03-28T23:01:28.466Z,4.47
2018-03-28T23:03:57.669Z,4.47
2018-03-28T23:06:26.862Z,4.50
2018-03-28T23:08:56.717Z,4.23
2018-03-28T23:11:25.820Z,3.60
2018-03-28T23:13:54.718Z,5.90
2018-03-28T23:16:23.394Z,5.73
2018-03-28T23:18:51.831Z,5.47
2018-03-28T23:21:20.293Z,5.40
2018-03-28T23:23:49.491Z,4.67
2018-03-28T23:26:18.695Z,4.77
2018-03-28T23:28:47.885Z,5.20
2018-03-28T23:31:17.076Z,5.37
2018-03-28T23:33:46.285Z,5.63
2018-03-28T23:36:15.471Z,5.33
2018-03-28T23:38:44.670Z,5.00
2018-03-28T23:41:13.860Z,4.87
2018-03-28T23:43:43.063Z,7.20
2018-03-28T23:46:12.262Z,4.37
2018-03-28T23:48:41.452Z,4.67
2018-03-28T23:51:10.635Z,5.27
2018-03-28T23:53:39.065Z,5.57
2018-03-28T23:56:07.478Z,4.27
2018-03-28T23:58:35.923Z,4.97
